createdAt,value
2022-08-22T00:01:21.342Z,19.40
2022-08-22T00:03:07.178Z,20.70
2022-08-22T00:04:06.769Z,19.40
2022-08-22T00:06:55.348Z,19.40
2022-08-22T00:09:29.404Z,19.40
2022-08-22T00:12:12.223Z,19.30
2022-08-22T00:14:46.838Z,19.30
2022-08-22T00:17:38.547Z,19.30
2022-08-22T00:20:11.027Z,19.30
2022-08-22T00:22:55.405Z,19.30
2022-08-22T00:25:47.625Z,19.20
2022-08-22T00:28:30.001Z,19.20
2022-08-22T00:31:18.064Z,19.20
2022-08-22T00:34:17.447Z,19.10
2022-08-22T00:36:52.733Z,19.10
2022-08-22T00:39:27.111Z,19.10
2022-08-22T00:41:56.762Z,19.10
2022-08-22T00:45:12.872Z,19.10
2022-08-22T00:47:59.961Z,19.10
2022-08-22T00:50:51.526Z,19.10
2022-08-22T00:53:36.571Z,19.00
2022-08-22T00:56:26.518Z,19.10
2022-08-22T00:59:23.516Z,19.10
2022-08-22T01:02:31.835Z,19.10
2022-08-22T01:05:07.689Z,19.10
2022-08-22T01:07:50.969Z,19.00
2022-08-22T01:10:48.395Z,19.10
2022-08-22T01:13:28.782Z,19.10
2022-08-22T01:16:23.373Z,19.10
2022-08-22T01:19:38.046Z,19.10
2022-08-22T01:22:26.428Z,19.10
2022-08-22T01:25:18.427Z,19.10
2022-08-22T01:28:31.632Z,19.00
2022-08-22T01:31:48.829Z,19.10
2022-08-22T01:34:34.031Z,19.00
2022-08-22T01:37:30.787Z,19.10
2022-08-22T01:40:22.112Z,19.00
2022-08-22T01:43:05.579Z,19.00
2022-08-22T01:45:53.408Z,19.10
2022-08-22T01:48:48.111Z,19.00
2022-08-22T01:51:24.335Z,19.10
2022-08-22T01:54:07.670Z,19.00
2022-08-22T01:56:41.562Z,19.00
2022-08-22T01:59:14.934Z,19.00
2022-08-22T02:01:52.514Z,19.00
2022-08-22T02:04:33.411Z,19.00
2022-08-22T02:07:06.185Z,19.00
2022-08-22T02:09:36.304Z,19.00
2022-08-22T02:12:26.188Z,18.90
2022-08-22T02:14:59.192Z,18.90
2022-08-22T02:17:35.642Z,18.90
2022-08-22T02:20:20.441Z,19.00
2022-08-22T02:23:18.368Z,18.90
2022-08-22T02:26:04.126Z,19.00
2022-08-22T02:28:35.776Z,18.90
2022-08-22T02:31:21.776Z,18.90
2022-08-22T02:34:01.216Z,18.90
2022-08-22T02:36:43.665Z,18.90
2022-08-22T02:39:40.492Z,18.90
2022-08-22T02:42:33.357Z,18.90
2022-08-22T02:45:17.818Z,18.90
2022-08-22T02:48:26.361Z,18.90
2022-08-22T02:51:17.079Z,18.90
2022-08-22T02:54:09.058Z,18.90
2022-08-22T02:56:59.942Z,18.90
2022-08-22T02:59:32.930Z,18.90
2022-08-22T03:02:34.792Z,18.90
2022-08-22T03:05:33.976Z,18.90
2022-08-22T03:08:30.783Z,18.90
2022-08-22T03:10:57.793Z,18.90
2022-08-22T03:13:48.436Z,18.90
2022-08-22T03:16:40.407Z,18.90
2022-08-22T03:19:20.211Z,18.90
2022-08-22T03:22:26.683Z,18.90
2022-08-22T03:24:59.478Z,18.90
2022-08-22T03:27:34.566Z,18.90
2022-08-22T03:30:07.819Z,18.90
2022-08-22T03:32:54.509Z,18.80
2022-08-22T03:35:53.730Z,18.80
2022-08-22T03:38:22.994Z,18.80
2022-08-22T03:40:52.966Z,18.80
2022-08-22T03:43:43.919Z,18.80
2022-08-22T03:46:31.786Z,18.80
2022-08-22T03:49:32.683Z,18.80
2022-08-22T03:52:12.646Z,18.80
2022-08-22T03:55:19.186Z,18.70
2022-08-22T03:58:27.589Z,18.70
2022-08-22T04:01:20.729Z,18.70
2022-08-22T04:04:22.767Z,18.70
2022-08-22T04:07:28.320Z,18.70
2022-08-22T04:10:33.599Z,18.70
2022-08-22T04:13:39.642Z,18.60
2022-08-22T04:16:24.578Z,18.60
2022-08-22T04:19:24.043Z,18.60
2022-08-22T04:22:02.492Z,18.50
2022-08-22T04:24:35.395Z,18.50
2022-08-22T04:27:07.603Z,18.50
2022-08-22T04:29:41.835Z,18.50
2022-08-22T04:32:30.289Z,18.50
2022-08-22T04:35:12.067Z,18.50
2022-08-22T04:37:44.379Z,18.40
2022-08-22T04:40:27.640Z,18.50
2022-08-22T04:43:01.741Z,18.40
2022-08-22T04:45:56.768Z,18.40
2022-08-22T04:48:32.086Z,18.40
2022-08-22T04:51:15.610Z,18.40
2022-08-22T04:53:56.369Z,18.40
2022-08-22T04:56:46.274Z,18.40
2022-08-22T04:59:17.805Z,18.40
2022-08-22T05:01:53.744Z,18.40
2022-08-22T05:04:35.674Z,18.30
2022-08-22T05:07:08.955Z,18.40
2022-08-22T05:09:39.410Z,18.30
2022-08-22T05:12:12.090Z,18.30
2022-08-22T05:14:51.495Z,18.30
2022-08-22T05:17:25.502Z,18.30
2022-08-22T05:19:55.993Z,18.30
2022-08-22T05:22:30.872Z,18.30
2022-08-22T05:25:02.597Z,18.30
2022-08-22T05:27:35.824Z,18.30
2022-08-22T05:30:13.132Z,18.30
2022-08-22T05:33:09.098Z,18.30
2022-08-22T05:35:49.567Z,18.30
2022-08-22T05:38:21.163Z,18.30
2022-08-22T05:40:59.730Z,18.30
2022-08-22T05:43:27.348Z,18.30
2022-08-22T05:45:58.102Z,18.30
2022-08-22T05:48:43.751Z,18.40
2022-08-22T05:51:26.311Z,18.40
2022-08-22T05:54:09.091Z,18.40
2022-08-22T05:56:46.137Z,18.40
2022-08-22T05:59:32.871Z,18.40
2022-08-22T06:02:05.248Z,18.40
2022-08-22T06:04:55.870Z,18.40
2022-08-22T06:07:27.169Z,18.40
2022-08-22T06:10:15.527Z,18.40
2022-08-22T06:12:48.246Z,18.40
2022-08-22T06:15:32.740Z,18.40
2022-08-22T06:18:12.503Z,18.40
2022-08-22T06:20:56.125Z,18.40
2022-08-22T06:23:48.522Z,18.40
2022-08-22T06:26:20.478Z,18.50
2022-08-22T06:28:54.654Z,18.50
2022-08-22T06:31:47.234Z,18.50
2022-08-22T06:34:18.038Z,18.60
2022-08-22T06:36:49.190Z,18.50
2022-08-22T06:39:22.848Z,18.60
2022-08-22T06:41:53.003Z,18.60
2022-08-22T06:44:37.710Z,18.60
2022-08-22T06:47:08.400Z,18.60
2022-08-22T06:49:37.518Z,18.60
2022-08-22T06:52:11.617Z,18.70
2022-08-22T06:54:45.591Z,18.70
2022-08-22T06:57:32.782Z,18.70
2022-08-22T07:00:02.387Z,18.80
2022-08-22T07:02:38.300Z,18.80
2022-08-22T07:05:09.883Z,18.80
2022-08-22T07:07:37.862Z,18.80
2022-08-22T07:10:05.420Z,18.80
2022-08-22T07:12:37.812Z,18.90
2022-08-22T07:15:35.086Z,18.90
2022-08-22T07:18:08.727Z,18.90
2022-08-22T07:20:42.049Z,18.90
2022-08-22T07:23:54.621Z,18.90
2022-08-22T07:26:33.733Z,18.90
2022-08-22T07:29:11.308Z,19.00
2022-08-22T07:31:53.511Z,19.10
2022-08-22T07:34:55.203Z,19.20
2022-08-22T07:37:36.591Z,19.20
2022-08-22T07:40:28.306Z,19.30
2022-08-22T07:43:21.303Z,19.40
2022-08-22T07:46:29.760Z,19.40
2022-08-22T07:49:10.211Z,19.50
2022-08-22T07:51:45.138Z,19.60
2022-08-22T07:54:16.596Z,19.70
2022-08-22T07:56:52.863Z,19.80
2022-08-22T07:59:22.433Z,19.90
2022-08-22T08:01:53.887Z,19.90
2022-08-22T08:04:40.225Z,20.00
2022-08-22T08:07:11.081Z,20.10
2022-08-22T08:09:43.284Z,20.20
2022-08-22T08:12:11.865Z,20.30
2022-08-22T08:14:42.584Z,20.40
2022-08-22T08:17:22.011Z,20.40
2022-08-22T08:19:50.829Z,20.50
2022-08-22T08:22:23.674Z,20.60
2022-08-22T08:24:53.970Z,20.80
2022-08-22T08:27:43.387Z,20.80
2022-08-22T08:30:19.218Z,20.90
2022-08-22T08:32:57.550Z,21.00
2022-08-22T08:36:02.455Z,21.10
2022-08-22T08:38:37.707Z,21.20
2022-08-22T08:41:42.366Z,21.30
2022-08-22T08:44:27.172Z,21.40
2022-08-22T08:47:27.820Z,21.60
2022-08-22T08:50:07.078Z,21.70
2022-08-22T08:53:01.273Z,21.80
2022-08-22T08:55:56.379Z,21.90
2022-08-22T08:58:32.914Z,22.10
2022-08-22T09:01:14.082Z,22.20
2022-08-22T09:04:19.644Z,22.30
2022-08-22T09:07:11.854Z,22.40
2022-08-22T09:10:11.133Z,22.60
2022-08-22T09:16:19.364Z,22.80
2022-08-22T09:19:14.262Z,22.90
2022-08-22T09:22:14.492Z,23.10
2022-08-22T09:25:06.553Z,23.30
2022-08-22T09:28:01.492Z,23.40
2022-08-22T09:30:58.020Z,23.60
2022-08-22T09:33:56.780Z,23.70
2022-08-22T09:36:42.091Z,23.80
2022-08-22T09:39:22.184Z,23.90
2022-08-22T09:41:59.948Z,24.10
2022-08-22T09:44:43.794Z,24.10
2022-08-22T09:47:43.771Z,24.30
2022-08-22T09:50:29.521Z,24.30
2022-08-22T09:53:31.076Z,24.50
2022-08-22T09:56:21.210Z,24.60
2022-08-22T09:59:20.982Z,24.80
2022-08-22T10:01:59.466Z,24.90
2022-08-22T10:04:46.678Z,25.00
2022-08-22T10:07:35.145Z,25.10
2022-08-22T10:10:23.530Z,25.30
2022-08-22T10:13:14.380Z,25.40
2022-08-22T10:15:56.436Z,25.50
2022-08-22T10:18:52.684Z,25.60
2022-08-22T10:21:32.910Z,25.70
2022-08-22T10:24:26.574Z,25.80
2022-08-22T10:26:58.131Z,25.90
2022-08-22T10:30:08.361Z,26.00
2022-08-22T10:32:42.826Z,26.10
2022-08-22T10:35:33.812Z,26.20
2022-08-22T10:38:12.434Z,26.30
2022-08-22T10:41:00.091Z,26.40
2022-08-22T10:43:49.860Z,26.50
2022-08-22T10:47:00.792Z,26.60
2022-08-22T10:49:51.124Z,26.80
2022-08-22T10:52:32.984Z,26.90
2022-08-22T10:55:13.378Z,26.90
2022-08-22T10:58:05.079Z,27.10
2022-08-22T11:00:50.717Z,27.20
2022-08-22T11:03:47.877Z,27.30
2022-08-22T11:06:23.701Z,27.50
2022-08-22T11:09:09.910Z,27.50
2022-08-22T11:11:56.098Z,27.70
2022-08-22T11:14:47.446Z,27.80
2022-08-22T11:17:28.250Z,27.90
2022-08-22T11:20:31.936Z,28.10
2022-08-22T11:23:18.248Z,28.20
2022-08-22T11:25:57.417Z,28.30
2022-08-22T11:28:53.455Z,28.40
2022-08-22T11:32:05.719Z,28.40
2022-08-22T11:34:53.143Z,28.50
2022-08-22T11:37:43.993Z,28.60
2022-08-22T11:40:36.286Z,28.70
2022-08-22T11:43:11.962Z,28.90
2022-08-22T11:45:49.557Z,29.00
2022-08-22T11:48:17.735Z,29.00
2022-08-22T11:50:51.488Z,29.10
2022-08-22T11:53:36.966Z,29.20
2022-08-22T11:56:43.254Z,29.30
2022-08-22T11:59:55.378Z,29.40
2022-08-22T12:02:41.513Z,29.50
2022-08-22T12:05:26.466Z,29.70
2022-08-22T12:08:22.539Z,29.70
2022-08-22T12:10:57.926Z,29.80
2022-08-22T12:13:52.266Z,29.80
2022-08-22T12:16:52.010Z,29.80
2022-08-22T12:20:05.642Z,29.90
2022-08-22T12:22:51.331Z,30.00
2022-08-22T12:25:44.779Z,30.10
2022-08-22T12:28:16.807Z,30.30
2022-08-22T12:31:09.096Z,30.20
2022-08-22T12:33:55.786Z,30.10
2022-08-22T12:36:36.311Z,29.90
2022-08-22T12:39:27.477Z,29.80
2022-08-22T12:42:16.339Z,29.70
2022-08-22T12:44:43.520Z,29.50
2022-08-22T12:47:36.218Z,29.30
2022-08-22T12:50:40.243Z,29.30
2022-08-22T12:53:07.368Z,29.20
2022-08-22T12:55:49.441Z,29.00
2022-08-22T12:58:21.955Z,28.90
2022-08-22T13:00:50.281Z,28.90
2022-08-22T13:03:35.564Z,28.80
2022-08-22T13:06:04.344Z,28.90
2022-08-22T13:08:39.214Z,28.90
2022-08-22T13:11:22.762Z,29.00
2022-08-22T13:14:00.638Z,29.00
2022-08-22T13:16:39.072Z,29.00
2022-08-22T13:19:13.664Z,28.90
2022-08-22T13:21:48.623Z,28.90
2022-08-22T13:24:52.718Z,29.00
2022-08-22T13:27:31.654Z,29.10
2022-08-22T13:30:03.970Z,29.20
2022-08-22T13:32:33.883Z,29.30
2022-08-22T13:35:02.555Z,29.30
2022-08-22T13:37:38.163Z,29.30
2022-08-22T13:40:10.198Z,29.30
2022-08-22T13:42:48.857Z,29.30
2022-08-22T13:45:25.966Z,29.20
2022-08-22T13:48:03.665Z,29.10
2022-08-22T13:50:37.113Z,29.10
2022-08-22T13:53:40.959Z,29.00
2022-08-22T13:56:17.623Z,28.90
2022-08-22T13:58:48.243Z,29.00
2022-08-22T14:02:03.420Z,29.10
2022-08-22T14:04:36.696Z,29.10
2022-08-22T14:07:06.377Z,29.10
2022-08-22T14:09:39.372Z,29.10
2022-08-22T14:12:17.231Z,29.00
2022-08-22T14:14:54.490Z,29.00
2022-08-22T14:17:30.200Z,28.90
2022-08-22T14:20:11.047Z,28.90
2022-08-22T14:22:42.663Z,28.80
2022-08-22T14:25:21.284Z,28.80
2022-08-22T14:27:56.101Z,28.70
2022-08-22T14:30:35.480Z,28.70
2022-08-22T14:33:02.424Z,28.60
2022-08-22T14:35:38.089Z,28.60
2022-08-22T14:38:20.179Z,28.50
2022-08-22T14:40:52.187Z,28.50
2022-08-22T14:43:22.215Z,28.50
2022-08-22T14:46:01.948Z,28.50
2022-08-22T14:48:43.509Z,28.40
2022-08-22T14:51:25.223Z,28.40
2022-08-22T14:53:52.719Z,28.40
2022-08-22T14:56:24.660Z,28.40
2022-08-22T14:58:59.956Z,28.30
2022-08-22T15:01:33.069Z,28.30
2022-08-22T15:04:07.890Z,28.20
2022-08-22T15:06:37.606Z,28.10
2022-08-22T15:09:22.977Z,28.10
2022-08-22T15:11:50.194Z,28.10
2022-08-22T15:14:27.870Z,28.00
2022-08-22T15:17:02.514Z,27.90
2022-08-22T15:19:35.713Z,27.90
2022-08-22T15:22:28.742Z,27.90
2022-08-22T15:25:08.523Z,27.80
2022-08-22T15:27:45.684Z,27.80
2022-08-22T15:30:21.051Z,27.70
2022-08-22T15:32:49.135Z,27.70
2022-08-22T15:35:31.739Z,27.70
2022-08-22T15:38:05.762Z,27.60
2022-08-22T15:40:45.683Z,27.60
2022-08-22T15:43:25.506Z,27.60
2022-08-22T15:46:28.283Z,27.60
2022-08-22T15:49:06.458Z,27.60
2022-08-22T15:51:37.671Z,27.50
2022-08-22T15:54:16.432Z,27.50
2022-08-22T15:57:10.489Z,27.40
2022-08-22T16:00:02.089Z,27.40
2022-08-22T16:02:35.313Z,27.30
2022-08-22T16:05:11.346Z,27.20
2022-08-22T16:07:41.115Z,27.20
2022-08-22T16:10:24.859Z,27.10
2022-08-22T16:13:10.658Z,27.10
2022-08-22T16:15:50.304Z,27.00
2022-08-22T16:18:33.758Z,27.00
2022-08-22T16:21:23.745Z,27.00
2022-08-22T16:23:56.796Z,27.00
2022-08-22T16:26:30.957Z,27.00
2022-08-22T16:29:03.965Z,27.10
2022-08-22T16:31:48.758Z,27.10
2022-08-22T16:34:18.561Z,27.20
2022-08-22T16:37:03.646Z,27.20
2022-08-22T16:40:04.290Z,27.30
2022-08-22T16:42:41.770Z,27.40
2022-08-22T16:45:33.539Z,27.50
2022-08-22T16:48:33.954Z,27.50
2022-08-22T16:51:08.612Z,27.60
2022-08-22T16:53:35.482Z,27.60
2022-08-22T16:56:05.489Z,27.60
2022-08-22T16:59:19.662Z,27.60
2022-08-22T17:02:27.960Z,27.60
2022-08-22T17:05:45.320Z,27.60
2022-08-22T17:08:24.920Z,27.60
2022-08-22T17:11:06.249Z,27.50
2022-08-22T17:14:17.659Z,27.50
2022-08-22T17:17:13.846Z,27.40
2022-08-22T17:19:55.752Z,27.40
2022-08-22T17:22:40.800Z,27.30
2022-08-22T17:25:13.366Z,27.30
2022-08-22T17:27:43.843Z,27.20
2022-08-22T17:30:15.579Z,27.20
2022-08-22T17:32:59.834Z,27.20
2022-08-22T17:35:45.717Z,27.10
2022-08-22T17:38:45.388Z,27.00
2022-08-22T17:41:21.992Z,26.90
2022-08-22T17:43:59.299Z,26.90
2022-08-22T17:46:43.795Z,26.90
2022-08-22T17:49:29.066Z,26.80
2022-08-22T17:52:08.995Z,26.80
2022-08-22T17:54:42.051Z,26.70
2022-08-22T17:57:14.514Z,26.70
2022-08-22T17:59:47.686Z,26.60
2022-08-22T18:02:20.578Z,26.60
2022-08-22T18:05:14.199Z,26.50
2022-08-22T18:08:05.042Z,26.50
2022-08-22T18:10:50.236Z,26.40
2022-08-22T18:13:55.326Z,26.30
2022-08-22T18:16:33.780Z,26.30
2022-08-22T18:19:06.452Z,26.30
2022-08-22T18:21:48.778Z,26.30
2022-08-22T18:24:33.344Z,26.20
2022-08-22T18:27:34.951Z,26.10
2022-08-22T18:30:06.036Z,26.10
2022-08-22T18:32:51.801Z,26.00
2022-08-22T18:35:21.949Z,25.90
2022-08-22T18:38:02.412Z,25.90
2022-08-22T18:40:58.952Z,25.90
2022-08-22T18:43:34.799Z,25.80
2022-08-22T18:46:23.030Z,25.70
2022-08-22T18:49:14.036Z,25.70
2022-08-22T18:51:38.817Z,25.60
2022-08-22T18:54:07.144Z,25.60
2022-08-22T18:56:54.035Z,25.50
2022-08-22T18:59:49.158Z,25.50
2022-08-22T19:02:55.920Z,25.40
2022-08-22T19:05:50.925Z,25.40
2022-08-22T19:08:53.053Z,25.30
2022-08-22T19:11:37.333Z,25.30
2022-08-22T19:14:27.607Z,25.20
2022-08-22T19:17:23.522Z,25.20
2022-08-22T19:20:19.324Z,25.10
2022-08-22T19:22:50.922Z,25.00
2022-08-22T19:25:20.411Z,25.00
2022-08-22T19:28:08.838Z,24.90
2022-08-22T19:30:51.743Z,24.90
2022-08-22T19:33:34.145Z,24.90
2022-08-22T19:36:12.594Z,24.80
2022-08-22T19:38:54.527Z,24.80
2022-08-22T19:41:45.128Z,24.70
2022-08-22T19:44:33.438Z,24.70
2022-08-22T19:47:17.874Z,24.70
2022-08-22T19:49:50.858Z,24.60
2022-08-22T19:52:26.920Z,24.50
2022-08-22T19:55:12.374Z,24.60
2022-08-22T19:58:01.335Z,24.40
2022-08-22T20:00:50.294Z,24.40
2022-08-22T20:03:44.873Z,24.40
2022-08-22T20:06:46.005Z,24.30
2022-08-22T20:09:40.872Z,24.30
2022-08-22T20:12:09.196Z,24.30
2022-08-22T20:14:41.025Z,24.20
2022-08-22T20:17:25.680Z,24.10
2022-08-22T20:23:00.773Z,24.10
2022-08-22T20:25:44.389Z,24.00
2022-08-22T20:28:47.627Z,23.90
2022-08-22T20:31:25.704Z,23.90
2022-08-22T20:34:00.762Z,23.90
2022-08-22T20:36:29.323Z,23.80
2022-08-22T20:39:09.396Z,23.70
2022-08-22T20:41:41.995Z,23.60
2022-08-22T20:44:18.538Z,23.60
2022-08-22T20:47:00.996Z,23.50
2022-08-22T20:49:34.655Z,23.50
2022-08-22T20:52:08.909Z,23.40
2022-08-22T20:54:40.411Z,23.40
2022-08-22T20:57:17.030Z,23.30
2022-08-22T20:59:57.769Z,23.30
2022-08-22T21:02:36.031Z,23.20
2022-08-22T21:05:25.751Z,23.10
2022-08-22T21:08:03.896Z,23.00
2022-08-22T21:10:51.305Z,23.00
2022-08-22T21:13:36.562Z,22.90
2022-08-22T21:16:17.297Z,22.90
2022-08-22T21:18:52.714Z,22.90
2022-08-22T21:21:24.943Z,22.80
2022-08-22T21:23:55.515Z,22.80
2022-08-22T21:26:29.222Z,22.70
2022-08-22T21:29:04.667Z,22.60
2022-08-22T21:32:04.217Z,22.60
2022-08-22T21:34:47.008Z,22.50
2022-08-22T21:37:39.736Z,22.40
2022-08-22T21:40:17.858Z,22.40
2022-08-22T21:43:10.170Z,22.40
2022-08-22T21:45:40.064Z,22.30
2022-08-22T21:48:36.904Z,22.30
2022-08-22T21:51:38.810Z,22.30
2022-08-22T21:54:31.866Z,22.20
2022-08-22T21:57:09.534Z,22.10
2022-08-22T21:59:52.189Z,22.10
2022-08-22T22:02:41.732Z,22.10
2022-08-22T22:05:15.950Z,22.00
2022-08-22T22:07:46.754Z,22.00
2022-08-22T22:10:16.700Z,21.90
2022-08-22T22:12:46.509Z,21.90
2022-08-22T22:15:19.211Z,21.90
2022-08-22T22:17:46.326Z,21.90
2022-08-22T22:20:15.732Z,21.90
2022-08-22T22:22:46.431Z,21.80
2022-08-22T22:25:40.947Z,21.80
2022-08-22T22:28:23.720Z,21.70
2022-08-22T22:30:53.217Z,21.70
2022-08-22T22:33:23.952Z,21.70
2022-08-22T22:35:53.303Z,21.60
2022-08-22T22:38:24.133Z,21.60
2022-08-22T22:40:52.414Z,21.60
2022-08-22T22:43:19.849Z,21.60
2022-08-22T22:45:46.865Z,21.60
2022-08-22T22:48:24.295Z,21.50
2022-08-22T22:50:52.784Z,21.50
2022-08-22T22:53:21.527Z,21.60
2022-08-22T22:56:00.947Z,21.50
2022-08-22T22:58:29.172Z,21.50
2022-08-22T23:00:57.344Z,21.40
2022-08-22T23:03:26.727Z,21.40
2022-08-22T23:05:53.782Z,21.40
2022-08-22T23:08:20.754Z,21.40
2022-08-22T23:10:47.765Z,21.30
2022-08-22T23:13:14.898Z,21.30
2022-08-22T23:15:42.047Z,21.30
2022-08-22T23:18:08.966Z,21.20
2022-08-22T23:20:35.933Z,21.20
2022-08-22T23:23:02.910Z,21.10
2022-08-22T23:25:29.931Z,21.10
2022-08-22T23:27:57.429Z,21.10
2022-08-22T23:30:24.455Z,21.10
2022-08-22T23:32:51.354Z,21.10
2022-08-22T23:35:18.479Z,21.00
2022-08-22T23:37:45.391Z,21.00
2022-08-22T23:40:12.915Z,21.00
2022-08-22T23:42:40.009Z,20.90
2022-08-22T23:45:07.307Z,21.00
2022-08-22T23:47:34.198Z,21.00
2022-08-22T23:50:05.728Z,20.90
2022-08-22T23:52:33.638Z,20.90
2022-08-22T23:55:00.642Z,20.90
2022-08-22T23:57:29.422Z,20.90
2022-08-22T23:59:57.997Z,20.90
